Time;durP1;ratioP1;P1;durP2;ratioP2;P2;SDS_P1;SDS_P2;PMS_P1;PMS_P2;Temp;Humidity;BMP_temperature;BMP_pressure;BME280_temperature;BME280_humidity;BME280_pressure;Samples;Min_cycle;Max_cycle;Signal;HPM_P1;HPM_P2
2022/09/16 00:00:21;;;;;;;3.65;1.55;;;;;;;15.31;100.00;95368.38;4988461;28;20030;-61
2022/09/16 00:02:47;;;;;;;3.47;1.35;;;;;;;15.29;100.00;95357.94;4986825;28;20030;-61
2022/09/16 00:05:13;;;;;;;1.52;1.42;;;;;;;15.28;100.00;95353.66;4987222;28;20046;-62
2022/09/16 00:07:38;;;;;;;2.38;1.42;;;;;;;15.31;100.00;95355.09;4988132;28;20034;-62
2022/09/16 00:10:05;;;;;;;2.25;1.38;;;;;;;15.30;100.00;95342.84;4992095;28;20034;-61
2022/09/16 00:12:30;;;;;;;1.85;1.48;;;;;;;15.31;100.00;95341.84;4991450;28;20033;-62
2022/09/16 00:14:55;;;;;;;1.73;1.60;;;;;;;15.30;100.00;95341.03;4989146;28;20401;-61
2022/09/16 00:17:21;;;;;;;1.55;1.30;;;;;;;15.27;100.00;95335.25;4993939;28;20485;-61
2022/09/16 00:19:48;;;;;;;2.22;1.45;;;;;;;15.28;100.00;95335.09;4990472;28;20034;-62
2022/09/16 00:22:13;;;;;;;2.58;1.30;;;;;;;15.27;100.00;95333.44;4990242;28;20497;-62
2022/09/16 00:24:39;;;;;;;4.53;1.20;;;;;;;15.26;100.00;95334.44;4993342;28;20026;-62
2022/09/16 00:27:04;;;;;;;1.10;1.10;;;;;;;15.24;100.00;95335.63;4988020;28;20061;-62
2022/09/16 00:29:30;;;;;;;2.22;1.30;;;;;;;15.21;100.00;95342.09;4987952;28;20038;-61
2022/09/16 00:31:55;;;;;;;5.03;1.42;;;;;;;15.21;100.00;95342.09;4992853;28;20026;-62
2022/09/16 00:34:20;;;;;;;8.82;1.73;;;;;;;15.21;100.00;95335.97;4991654;28;20127;-62
2022/09/16 00:36:46;;;;;;;4.00;1.40;;;;;;;15.20;100.00;95337.00;4992070;28;20045;-62
2022/09/16 00:39:11;;;;;;;4.25;1.40;;;;;;;15.18;100.00;95338.00;4990057;28;20042;-61
2022/09/16 00:41:36;;;;;;;1.33;1.23;;;;;;;15.17;100.00;95343.47;4991292;28;20026;-62
2022/09/16 00:44:23;;;;;;;2.05;1.40;;;;;;;15.16;100.00;95340.00;4993573;28;20644;-61
2022/09/16 00:46:49;;;;;;;1.35;1.10;;;;;;;15.11;100.00;95337.03;4991065;28;20038;-62
2022/09/16 00:49:23;;;;;;;1.40;1.30;;;;;;;15.09;100.00;95344.34;4972558;28;20030;-62
2022/09/16 00:51:53;;;;;;;3.47;1.23;;;;;;;15.11;100.00;95352.94;4993369;28;20041;-62
2022/09/16 00:54:19;;;;;;;1.63;1.35;;;;;;;15.09;100.00;95347.00;4988196;28;20053;-62
2022/09/16 00:56:50;;;;;;;2.40;1.40;;;;;;;15.08;100.00;95348.00;4989358;28;20136;-61
2022/09/16 00:59:21;;;;;;;3.92;1.30;;;;;;;15.09;100.00;95343.53;4989457;28;20156;-62
2022/09/16 01:01:48;;;;;;;4.72;1.50;;;;;;;15.10;100.00;95342.53;4992661;28;20120;-62
2022/09/16 01:04:22;;;;;;;2.67;1.60;;;;;;;15.10;100.00;95348.66;4987195;28;20035;-61
2022/09/16 01:06:48;;;;;;;4.97;1.50;;;;;;;15.13;100.00;95350.13;4992753;28;20056;-61
2022/09/16 01:09:15;;;;;;;1.40;1.30;;;;;;;15.14;100.00;95355.28;4990351;28;20821;-62
2022/09/16 01:11:40;;;;;;;1.85;1.40;;;;;;;15.15;100.00;95354.25;4990607;28;20026;-61
2022/09/16 01:17:05;;;;;;;6.30;1.98;;;;;;;15.17;100.00;95362.88;4992909;28;20089;-61
2022/09/16 01:20:15;;;;;;;3.35;1.88;;;;;;;15.13;100.00;95366.03;4989457;28;20042;-62
2022/09/16 01:23:08;;;;;;;7.03;2.30;;;;;;;15.16;100.00;95363.03;4989713;28;20113;-61
2022/09/16 01:26:11;;;;;;;2.30;2.20;;;;;;;15.19;100.00;95370.63;4989459;28;20052;-61
2022/09/16 01:28:45;;;;;;;5.00;2.53;;;;;;;15.20;100.00;95363.50;4990663;28;20599;-62
2022/09/16 01:31:19;;;;;;;5.43;2.42;;;;;;;15.21;100.00;95367.81;4988146;28;20572;-61
2022/09/16 01:34:24;;;;;;;2.20;2.10;;;;;;;15.21;100.00;95367.81;4990126;28;20506;-61
2022/09/16 01:37:10;;;;;;;2.33;2.13;;;;;;;15.24;100.00;95362.94;4990561;28;20093;-62
2022/09/16 01:40:10;;;;;;;3.55;2.15;;;;;;;15.23;100.00;95355.19;4989499;28;20038;-62
2022/09/16 01:42:35;;;;;;;2.83;2.30;;;;;;;15.19;100.00;95357.38;4949833;28;20026;-62
2022/09/16 01:45:20;;;;;;;4.25;1.77;;;;;;;15.15;100.00;95350.78;4989743;28;20030;-62
2022/09/16 01:47:54;;;;;;;2.20;2.08;;;;;;;15.14;100.00;95357.91;4990281;28;20149;-62
2022/09/16 01:50:35;;;;;;;4.68;2.35;;;;;;;15.14;100.00;95352.63;4988156;28;20062;-61
2022/09/16 01:53:26;;;;;;;3.25;2.13;;;;;;;15.13;100.00;95353.59;4983608;28;20038;-62
2022/09/16 01:55:59;;;;;;;7.13;2.13;;;;;;;15.14;100.00;95347.31;4995626;28;20085;-61
2022/09/16 01:59:22;;;;;;;1.98;1.88;;;;;;;15.16;100.00;95342.66;4991536;28;20433;-62
2022/09/16 02:02:01;;;;;;;2.28;2.03;;;;;;;15.11;100.00;95344.19;4942138;29;20136;-62
2022/09/16 02:04:31;;;;;;;3.03;2.00;;;;;;;15.07;100.00;95346.34;4936147;29;20031;-62
2022/09/16 02:07:00;;;;;;;2.83;2.03;;;;;;;15.05;100.00;95337.75;4952028;28;20041;-62
2022/09/16 02:09:32;;;;;;;3.60;2.13;;;;;;;15.03;100.00;95334.47;4970415;28;20513;-62
2022/09/16 02:12:04;;;;;;;2.20;1.98;;;;;;;15.09;100.00;95335.59;4975039;28;20050;-62
2022/09/16 02:14:34;;;;;;;3.88;1.75;;;;;;;15.08;100.00;95340.06;4967502;28;20043;-62
2022/09/16 02:17:16;;;;;;;2.17;1.85;;;;;;;15.08;100.00;95340.06;4972238;28;20406;-62
2022/09/16 02:19:46;;;;;;;7.57;1.90;;;;;;;15.09;100.00;95338.25;4970222;28;20041;-62
2022/09/16 02:22:19;;;;;;;4.50;1.40;;;;;;;15.07;100.00;95333.09;4968712;28;20027;-62
2022/09/16 02:24:46;;;;;;;2.38;1.75;;;;;;;15.07;100.00;95322.50;4971096;28;20038;-62
2022/09/16 02:27:16;;;;;;;1.60;1.60;;;;;;;15.09;100.00;95332.94;4973578;28;20045;-62
2022/09/16 02:29:48;;;;;;;2.08;1.90;;;;;;;15.08;100.00;95329.44;4968074;28;20368;-62
2022/09/16 02:32:14;;;;;;;3.40;1.70;;;;;;;15.09;100.00;95338.25;4971628;28;20035;-62
2022/09/16 02:34:43;;;;;;;2.88;1.52;;;;;;;15.12;100.00;95333.38;4968563;28;20034;-62
2022/09/16 02:37:28;;;;;;;2.42;1.60;;;;;;;15.15;100.00;95335.69;4969467;28;20035;-62
2022/09/16 02:40:00;;;;;;;1.67;1.58;;;;;;;15.22;100.00;95330.47;4968309;28;20030;-62
2022/09/16 02:42:27;;;;;;;7.38;1.45;;;;;;;15.32;100.00;95333.72;4970129;28;20038;-62
2022/09/16 02:44:54;;;;;;;2.55;1.30;;;;;;;15.22;100.00;95327.84;4966583;28;20035;-62
2022/09/16 02:47:29;;;;;;;4.78;1.70;;;;;;;15.54;100.00;95338.31;4971964;28;20031;-62
2022/09/16 02:50:00;;;;;;;5.63;1.80;;;;;;;15.55;100.00;95329.34;4970213;28;20039;-62
2022/09/16 02:52:31;;;;;;;2.33;1.50;;;;;;;15.52;100.00;95338.50;4967647;28;20117;-62
2022/09/16 02:55:04;;;;;;;1.75;1.65;;;;;;;15.31;100.00;95334.72;4969453;28;20027;-62
2022/09/16 02:57:31;;;;;;;4.00;1.80;;;;;;;15.13;100.00;95335.03;4969378;28;20402;-62
2022/09/16 02:59:56;;;;;;;6.70;1.92;;;;;;;15.10;100.00;95340.69;4967652;28;20062;-62
2022/09/16 03:02:22;;;;;;;4.78;2.20;;;;;;;15.06;100.00;95334.09;4973455;28;20114;-62
2022/09/16 03:04:48;;;;;;;3.72;1.48;;;;;;;15.03;100.00;95332.66;4966952;28;20027;-62
2022/09/16 03:07:14;;;;;;;1.92;1.50;;;;;;;15.01;100.00;95328.53;4988773;28;20494;-62
2022/09/16 03:09:43;;;;;;;1.60;1.50;;;;;;;15.00;100.00;95329.53;4988354;28;20042;-62
2022/09/16 03:12:17;;;;;;;1.95;1.50;;;;;;;15.00;100.00;95329.53;4987902;28;20081;-62
2022/09/16 03:15:10;;;;;;;6.72;1.60;;;;;;;14.97;100.00;95330.69;4986231;28;20026;-62
2022/09/16 03:18:31;;;;;;;6.03;1.60;;;;;;;14.98;100.00;95332.34;4983713;28;20037;-62
2022/09/16 03:21:14;;;;;;;2.33;1.50;;;;;;;15.00;100.00;95324.22;4977196;28;20034;-62
2022/09/16 03:23:59;;;;;;;2.67;1.33;;;;;;;15.00;100.00;95324.22;4986394;28;20029;-62
2022/09/16 03:26:39;;;;;;;3.42;1.50;;;;;;;15.00;100.00;95325.03;4985444;28;20502;-62
2022/09/16 03:29:23;;;;;;;1.63;1.55;;;;;;;15.04;100.00;95325.50;4989632;28;20037;-62
2022/09/16 03:31:54;;;;;;;1.73;1.63;;;;;;;15.07;100.00;95325.16;4989748;28;20188;-61
2022/09/16 03:34:28;;;;;;;1.80;1.45;;;;;;;15.08;100.00;95326.78;4986701;28;20093;-62
2022/09/16 03:36:59;;;;;;;3.13;1.80;;;;;;;15.08;100.00;95326.00;4987580;28;20143;-62
2022/09/16 03:39:24;;;;;;;2.53;1.55;;;;;;;15.06;100.00;95320.84;4990123;28;20169;-62
2022/09/16 03:41:50;;;;;;;1.45;1.40;;;;;;;15.08;100.00;95329.44;4987431;28;20406;-62
2022/09/16 03:44:15;;;;;;;1.50;1.40;;;;;;;15.05;100.00;95321.84;4985611;28;20501;-62
2022/09/16 03:46:41;;;;;;;3.47;1.60;;;;;;;15.05;100.00;95329.81;4989870;28;20029;-62
2022/09/16 03:49:06;;;;;;;3.05;1.38;;;;;;;15.07;100.00;95329.66;4984306;28;20023;-62
2022/09/16 03:51:32;;;;;;;1.55;1.45;;;;;;;15.07;100.00;95335.75;4989633;28;20022;-62
2022/09/16 03:53:57;;;;;;;3.60;1.50;;;;;;;15.08;100.00;95326.00;4986176;28;20018;-62
2022/09/16 03:56:23;;;;;;;2.25;1.60;;;;;;;15.09;100.00;95325.78;4988296;28;20401;-62
2022/09/16 03:58:49;;;;;;;1.83;1.50;;;;;;;15.11;100.00;95331.75;4987911;28;20379;-62
2022/09/16 04:01:15;;;;;;;2.95;1.55;;;;;;;15.24;100.00;95325.00;4987331;28;20121;-63
2022/09/16 04:03:40;;;;;;;3.10;2.17;;;;;;;15.26;100.00;95329.16;4986369;28;20058;-62
2022/09/16 04:06:06;;;;;;;1.80;1.30;;;;;;;15.36;100.00;95328.84;4989847;28;20050;-62
2022/09/16 04:08:32;;;;;;;5.15;1.88;;;;;;;15.30;100.00;95330.44;4988227;28;20026;-62
2022/09/16 04:11:06;;;;;;;1.80;1.70;;;;;;;15.12;100.00;95336.03;4989848;28;20019;-62
2022/09/16 04:13:33;;;;;;;1.60;1.50;;;;;;;15.11;100.00;95333.59;4987590;28;20026;-62
2022/09/16 04:16:00;;;;;;;2.65;1.70;;;;;;;15.17;100.00;95330.22;4987931;28;20053;-62
2022/09/16 04:18:26;;;;;;;1.63;1.50;;;;;;;15.35;100.00;95323.75;4986581;28;20042;-62
2022/09/16 04:20:59;;;;;;;4.60;1.70;;;;;;;15.36;100.00;95323.56;4986649;28;20019;-62
2022/09/16 04:23:26;;;;;;;1.80;1.70;;;;;;;15.19;100.00;95325.53;4985077;28;20418;-62
2022/09/16 04:25:56;;;;;;;3.80;1.77;;;;;;;15.01;100.00;95331.97;4988623;28;20030;-62
2022/09/16 04:28:22;;;;;;;4.35;4.05;;;;;;;15.04;100.00;95329.00;4984106;28;20030;-62
2022/09/16 04:30:47;;;;;;;6.18;5.68;;;;;;;15.15;100.00;95326.91;4986219;28;20041;-62
2022/09/16 04:33:13;;;;;;;7.30;6.68;;;;;;;15.02;100.00;95323.03;4968903;28;20035;-62
2022/09/16 04:35:38;;;;;;;8.35;7.55;;;;;;;14.95;100.00;95331.91;4989724;28;20034;-61
2022/09/16 04:38:04;;;;;;;7.57;6.90;;;;;;;14.90;100.00;95338.53;4986444;28;20053;-60
2022/09/16 04:40:29;;;;;;;7.93;7.22;;;;;;;14.89;100.00;95333.44;4989676;28;20458;-60
2022/09/16 04:42:54;;;;;;;9.68;7.45;;;;;;;14.86;100.00;95337.25;4985277;28;20493;-60
2022/09/16 04:45:20;;;;;;;6.80;6.28;;;;;;;14.86;100.00;95333.78;4985704;28;20027;-60
2022/09/16 04:47:45;;;;;;;7.03;6.43;;;;;;;14.87;100.00;95332.78;4988864;28;20026;-60
2022/09/16 04:50:10;;;;;;;7.10;6.53;;;;;;;14.90;100.00;95333.22;4984769;28;20927;-60
2022/09/16 04:52:36;;;;;;;6.65;6.10;;;;;;;14.95;100.00;95331.91;4981613;28;20050;-60
2022/09/16 04:55:01;;;;;;;7.32;6.72;;;;;;;14.96;100.00;95333.53;4988174;28;20115;-61
2022/09/16 04:57:34;;;;;;;7.65;7.03;;;;;;;14.95;100.00;95332.72;4989338;28;20486;-60
2022/09/16 04:59:59;;;;;;;6.38;5.97;;;;;;;14.96;100.00;95325.59;4988604;28;20058;-60
2022/09/16 05:02:25;;;;;;;9.32;6.05;;;;;;;14.97;100.00;95320.09;4990770;28;20532;-61
2022/09/16 05:04:50;;;;;;;6.05;5.47;;;;;;;14.98;100.00;95323.59;4986817;28;20011;-60
2022/09/16 05:07:15;;;;;;;5.57;5.18;;;;;;;15.01;100.00;95323.22;4992117;28;20084;-61
2022/09/16 05:09:41;;;;;;;6.40;5.78;;;;;;;15.01;100.00;95320.56;4989443;28;20018;-61
2022/09/16 05:12:07;;;;;;;4.93;4.53;;;;;;;14.99;100.00;95306.69;4992364;28;20398;-60
2022/09/16 05:14:32;;;;;;;5.05;4.65;;;;;;;15.00;100.00;95324.22;4989570;28;20026;-60
2022/09/16 05:16:58;;;;;;;4.47;4.10;;;;;;;15.00;100.00;95321.56;4988240;28;20014;-60
2022/09/16 05:19:23;;;;;;;4.40;4.10;;;;;;;15.01;100.00;95328.53;4991359;28;20037;-61
2022/09/16 05:21:48;;;;;;;4.63;3.78;;;;;;;15.00;100.00;95325.03;4990991;28;20030;-60
2022/09/16 05:24:14;;;;;;;2.60;2.50;;;;;;;15.02;100.00;95327.53;4989703;28;20121;-61
2022/09/16 05:26:41;;;;;;;4.63;2.47;;;;;;;15.04;100.00;95320.22;4986755;28;20041;-61
2022/09/16 05:29:10;;;;;;;3.92;1.95;;;;;;;15.01;100.00;95331.19;4987105;28;20527;-61
2022/09/16 05:31:38;;;;;;;3.22;2.20;;;;;;;14.98;100.00;95327.03;4988925;28;20397;-61
2022/09/16 05:34:11;;;;;;;5.63;2.00;;;;;;;14.99;100.00;95325.22;4989195;28;20034;-60
2022/09/16 05:36:37;;;;;;;2.15;2.05;;;;;;;15.01;100.00;95323.22;4987996;28;20022;-61
2022/09/16 05:39:04;;;;;;;2.78;2.67;;;;;;;15.02;100.00;95328.34;4990381;28;20523;-61
2022/09/16 05:41:30;;;;;;;2.22;2.13;;;;;;;15.03;100.00;95337.97;4988760;28;20050;-61
2022/09/16 05:43:59;;;;;;;4.03;2.20;;;;;;;15.04;100.00;95330.81;4988811;28;20466;-60
2022/09/16 05:46:25;;;;;;;4.15;2.20;;;;;;;15.03;100.00;95334.47;4990353;28;20041;-61
2022/09/16 05:48:50;;;;;;;3.65;2.25;;;;;;;15.04;100.00;95330.81;4989315;28;20545;-61
2022/09/16 05:51:19;;;;;;;2.05;1.95;;;;;;;15.08;100.00;95333.94;4990815;28;20026;-61
2022/09/16 05:53:45;;;;;;;2.38;2.20;;;;;;;15.11;100.00;95334.38;4988805;28;20022;-60
2022/09/16 05:56:13;;;;;;;2.10;2.00;;;;;;;15.33;100.00;95343.31;4988206;28;20037;-60
2022/09/16 05:58:40;;;;;;;2.10;2.00;;;;;;;15.24;100.00;95346.22;4986745;28;20037;-60
2022/09/16 06:01:17;;;;;;;5.35;2.42;;;;;;;15.17;100.00;95346.94;4988461;28;20047;-61
2022/09/16 06:03:44;;;;;;;3.70;2.50;;;;;;;15.12;100.00;95346.63;4985887;28;20081;-61
2022/09/16 06:06:12;;;;;;;2.95;2.75;;;;;;;15.11;100.00;95352.94;4990446;28;20081;-60
2022/09/16 06:08:39;;;;;;;2.80;2.60;;;;;;;15.12;100.00;95348.47;4988083;28;20040;-62
2022/09/16 06:11:07;;;;;;;3.13;2.33;;;;;;;15.11;100.00;95355.59;4986854;28;20038;-61
2022/09/16 06:13:33;;;;;;;4.10;2.70;;;;;;;15.07;100.00;95351.66;4988107;28;20061;-60
2022/09/16 06:15:59;;;;;;;3.28;2.50;;;;;;;15.11;100.00;95354.78;4995146;28;20062;-60
2022/09/16 06:18:28;;;;;;;2.50;2.40;;;;;;;15.13;100.00;95356.25;4983793;28;20048;-61
2022/09/16 06:20:53;;;;;;;2.80;2.60;;;;;;;15.15;100.00;95358.72;4986199;28;20109;-60
2022/09/16 06:23:19;;;;;;;3.58;2.22;;;;;;;15.15;100.00;95362.22;4987450;28;20479;-61
2022/09/16 06:25:45;;;;;;;3.08;2.35;;;;;;;15.17;100.00;95354.06;4989017;28;20065;-61
2022/09/16 06:28:11;;;;;;;3.90;2.55;;;;;;;15.21;100.00;95351.88;4970783;28;20121;-61
2022/09/16 06:30:37;;;;;;;4.40;2.50;;;;;;;15.24;100.00;95356.84;4988356;28;20026;-60
2022/09/16 06:33:03;;;;;;;2.75;2.55;;;;;;;15.29;100.00;95359.75;4986196;28;20556;-60
2022/09/16 06:35:29;;;;;;;3.83;2.63;;;;;;;15.42;100.00;95359.16;4981231;28;20410;-60
2022/09/16 06:37:55;;;;;;;8.55;2.30;;;;;;;15.51;100.00;95359.91;4981103;28;20030;-61
2022/09/16 06:40:20;;;;;;;2.20;2.10;;;;;;;15.59;100.00;95358.00;4982976;28;20030;-61
2022/09/16 06:42:45;;;;;;;5.38;3.45;;;;;;;15.63;100.00;95360.28;4987294;28;20049;-60
2022/09/16 06:45:11;;;;;;;2.60;2.40;;;;;;;15.64;100.00;95368.06;4987373;28;20033;-60
2022/09/16 06:47:36;;;;;;;2.70;2.50;;;;;;;15.64;100.00;95368.06;4986453;28;20027;-60
2022/09/16 06:50:04;;;;;;;2.72;2.53;;;;;;;15.60;100.00;95366.78;4984627;28;20038;-60
2022/09/16 06:52:29;;;;;;;4.55;2.40;;;;;;;15.55;100.00;95371.78;4989297;28;20022;-61
2022/09/16 06:54:55;;;;;;;2.10;2.00;;;;;;;15.54;100.00;95368.31;4989542;28;20424;-60
2022/09/16 06:57:22;;;;;;;2.05;1.95;;;;;;;15.51;100.00;95373.16;4988123;28;20040;-60
2022/09/16 06:59:51;;;;;;;2.00;1.83;;;;;;;15.50;100.00;95369.69;4988348;28;20868;-60
2022/09/16 07:02:17;;;;;;;2.40;1.95;;;;;;;15.54;100.00;95362.19;4984921;28;20089;-61
2022/09/16 07:04:43;;;;;;;3.40;2.08;;;;;;;15.57;100.00;95367.13;4985151;28;20026;-60
2022/09/16 07:07:08;;;;;;;2.65;1.90;;;;;;;15.60;100.00;95370.25;4987057;28;20038;-60
2022/09/16 07:09:34;;;;;;;2.28;2.17;;;;;;;15.59;100.00;95367.78;4989550;28;20042;-61
2022/09/16 07:11:59;;;;;;;2.42;2.05;;;;;;;15.58;100.00;95374.91;4985720;28;20030;-60
2022/09/16 07:14:26;;;;;;;2.55;2.35;;;;;;;15.58;100.00;95371.41;4986528;28;20029;-61
2022/09/16 07:16:51;;;;;;;2.13;1.90;;;;;;;15.57;100.00;95372.44;4988360;28;20089;-61
2022/09/16 07:19:17;;;;;;;1.90;1.80;;;;;;;15.60;100.00;95378.22;4987323;28;20023;-60
2022/09/16 07:21:42;;;;;;;2.10;2.00;;;;;;;15.63;100.00;95370.88;4988447;28;20046;-61
2022/09/16 07:24:11;;;;;;;4.13;2.20;;;;;;;15.66;100.00;95368.69;4986636;28;20037;-61
2022/09/16 07:26:37;;;;;;;4.13;2.25;;;;;;;15.71;100.00;95374.28;4985768;28;20457;-61
2022/09/16 07:29:05;;;;;;;2.70;2.50;;;;;;;15.76;100.00;95377.22;4988288;28;20493;-61
2022/09/16 07:31:34;;;;;;;2.50;2.13;;;;;;;15.74;100.00;95371.25;4986852;28;20375;-60
2022/09/16 07:34:00;;;;;;;2.40;2.25;;;;;;;15.79;100.00;95383.16;4986082;28;20049;-60
2022/09/16 07:36:30;;;;;;;3.28;2.22;;;;;;;15.83;100.00;95379.16;4989586;28;20022;-61
2022/09/16 07:38:57;;;;;;;2.38;2.28;;;;;;;15.86;100.00;95376.13;4984918;28;20165;-60
2022/09/16 07:41:28;;;;;;;2.22;2.13;;;;;;;15.84;100.00;95384.25;4987204;28;20080;-60
2022/09/16 07:43:57;;;;;;;3.45;2.40;;;;;;;15.81;100.00;95381.16;4988128;28;20015;-60
2022/09/16 07:46:24;;;;;;;3.22;2.65;;;;;;;15.81;100.00;95376.66;4989617;28;20037;-60
2022/09/16 07:48:50;;;;;;;3.95;2.80;;;;;;;15.80;100.00;95377.69;4988248;28;20026;-60
2022/09/16 07:51:21;;;;;;;2.78;2.58;;;;;;;15.79;100.00;95385.81;4986165;28;20078;-60
2022/09/16 07:53:51;;;;;;;3.10;2.90;;;;;;;15.78;100.00;95385.00;4989336;28;20516;-61
2022/09/16 07:56:19;;;;;;;3.05;2.80;;;;;;;15.81;100.00;95386.47;4985776;28;20607;-60
2022/09/16 07:58:46;;;;;;;3.03;2.85;;;;;;;15.79;100.00;95385.81;4987653;28;20042;-61
2022/09/16 08:01:13;;;;;;;3.40;3.10;;;;;;;15.79;100.00;95391.97;4987587;28;20027;-60
2022/09/16 08:03:40;;;;;;;3.15;2.95;;;;;;;15.82;100.00;95396.09;4988176;28;20033;-61
2022/09/16 08:06:14;;;;;;;3.28;3.08;;;;;;;15.76;100.00;95390.47;4989170;28;20513;-60
2022/09/16 08:08:40;;;;;;;3.10;2.92;;;;;;;15.83;100.00;95395.09;4986218;28;20030;-60
2022/09/16 08:11:06;;;;;;;3.22;3.03;;;;;;;15.88;100.00;95398.84;4982320;28;20984;-61
2022/09/16 08:13:33;;;;;;;4.38;2.70;;;;;;;15.89;100.00;95403.16;4981691;28;20030;-61
2022/09/16 08:16:02;;;;;;;3.72;3.17;;;;;;;15.92;100.00;95407.28;4985781;28;20023;-61
2022/09/16 08:18:28;;;;;;;3.65;2.97;;;;;;;15.95;100.00;95408.75;4986062;28;20164;-60
2022/09/16 08:20:53;;;;;;;2.88;2.67;;;;;;;15.95;100.00;95406.09;4985474;28;20440;-60
2022/09/16 08:23:19;;;;;;;5.50;3.28;;;;;;;15.98;100.00;95397.78;4984956;28;20042;-61
2022/09/16 08:25:45;;;;;;;5.38;3.55;;;;;;;16.02;100.00;95407.81;4984112;28;20501;-61
2022/09/16 08:28:16;;;;;;;3.30;3.00;;;;;;;16.06;100.00;95410.13;4984122;28;20084;-60
2022/09/16 08:30:42;;;;;;;4.03;2.80;;;;;;;16.09;100.00;95407.91;4985419;28;20038;-61
2022/09/16 08:33:07;;;;;;;3.53;3.22;;;;;;;16.15;100.00;95409.84;4990336;28;20041;-61
2022/09/16 08:35:33;;;;;;;4.80;3.17;;;;;;;16.27;100.00;95409.38;4991476;28;20046;-61
2022/09/16 08:37:58;;;;;;;3.35;3.15;;;;;;;16.42;100.00;95412.00;4981233;28;20034;-61
2022/09/16 08:40:25;;;;;;;3.65;3.10;;;;;;;16.49;100.00;95415.59;4988281;28;20413;-61
2022/09/16 08:43:11;;;;;;;3.35;3.15;;;;;;;16.54;100.00;95409.69;4988069;28;20027;-60
2022/09/16 08:46:08;;;;;;;2.90;2.75;;;;;;;16.63;100.00;95413.91;4984823;28;20375;-61
2022/09/16 08:49:21;;;;;;;3.25;3.05;;;;;;;16.67;100.00;95415.19;4986825;28;20030;-61
2022/09/16 08:51:47;;;;;;;4.55;3.00;;;;;;;16.56;100.00;95413.84;4930151;29;20036;-61
2022/09/16 08:54:25;;;;;;;4.63;3.47;;;;;;;16.52;100.00;95417.88;4929974;29;20589;-61
2022/09/16 08:56:54;;;;;;;3.40;3.20;;;;;;;16.50;100.00;95417.25;4963918;28;20034;-61
2022/09/16 08:59:24;;;;;;;3.28;2.97;;;;;;;16.62;100.00;95420.25;4986224;28;20114;-61
2022/09/16 09:01:58;;;;;;;5.47;3.35;;;;;;;16.72;100.00;95422.59;4988926;28;20502;-61
2022/09/16 09:04:24;;;;;;;3.20;3.00;;;;;;;16.93;100.00;95423.66;4992190;28;20023;-60
2022/09/16 09:07:02;;;;;;;3.58;2.80;;;;;;;17.18;100.00;95414.31;4990577;28;20093;-61
2022/09/16 09:09:36;;;;;;;3.33;2.92;;;;;;;17.31;100.00;95423.41;4986195;28;20034;-61
2022/09/16 09:12:44;;;;;;;3.13;2.92;;;;;;;17.32;99.20;95425.06;4988350;28;20034;-61
2022/09/16 09:15:20;;;;;;;3.25;3.05;;;;;;;17.29;99.47;95417.47;4963086;28;20019;-61
2022/09/16 09:17:54;;;;;;;9.18;3.00;;;;;;;17.33;97.98;95414.25;4981132;28;20872;-61
2022/09/16 09:20:49;;;;;;;2.60;2.45;;;;;;;17.42;97.22;95414.94;4990688;28;20026;-61
2022/09/16 09:23:52;;;;;;;2.90;2.70;;;;;;;17.46;96.76;95412.69;4987130;28;20691;-61
2022/09/16 09:26:47;;;;;;;3.03;2.72;;;;;;;17.65;93.80;95410.38;4911333;29;20101;-61
2022/09/16 09:29:23;;;;;;;5.72;2.53;;;;;;;17.90;94.64;95405.47;4910453;29;20116;-61
2022/09/16 09:31:56;;;;;;;3.20;3.00;;;;;;;18.18;90.90;95410.78;4966515;28;20038;-61
2022/09/16 09:34:48;;;;;;;3.15;2.95;;;;;;;18.12;88.99;95406.22;4989837;28;20085;-61
2022/09/16 09:37:46;;;;;;;4.28;2.50;;;;;;;18.18;88.87;95407.28;4983424;28;20041;-61
2022/09/16 09:40:39;;;;;;;3.15;2.88;;;;;;;18.39;84.18;95405.53;4935362;28;20121;-61
2022/09/16 09:43:41;;;;;;;3.35;3.05;;;;;;;18.11;87.51;95399.25;4986721;28;20026;-61
2022/09/16 09:46:16;;;;;;;2.65;2.45;;;;;;;18.09;84.69;95395.16;4974071;28;20043;-61
2022/09/16 09:48:47;;;;;;;6.05;3.22;;;;;;;18.03;84.87;95394.09;4985311;28;20041;-61
2022/09/16 09:51:37;;;;;;;4.80;3.17;;;;;;;17.80;84.91;95395.16;4990559;28;20026;-61
2022/09/16 09:54:26;;;;;;;2.95;2.72;;;;;;;18.16;85.30;95401.34;4989321;28;20031;-61
2022/09/16 09:57:19;;;;;;;3.10;2.80;;;;;;;18.75;81.39;95401.78;4985275;28;20022;-60
2022/09/16 10:00:13;;;;;;;3.13;2.83;;;;;;;19.04;79.57;95400.69;4990131;28;20034;-61
2022/09/16 10:02:41;;;;;;;3.47;3.15;;;;;;;18.96;80.25;95402.69;4979372;28;20038;-61
2022/09/16 10:05:27;;;;;;;3.47;2.88;;;;;;;19.05;78.07;95401.47;4984137;28;20927;-61
2022/09/16 10:07:59;;;;;;;3.22;3.03;;;;;;;18.78;76.59;95398.72;4990365;28;20041;-60
2022/09/16 10:10:28;;;;;;;3.30;3.00;;;;;;;18.45;79.22;95410.06;4989644;28;20042;-61
2022/09/16 10:12:53;;;;;;;7.38;3.25;;;;;;;18.37;76.20;95403.09;4989595;28;20402;-61
2022/09/16 10:15:26;;;;;;;4.38;2.80;;;;;;;18.55;77.83;95402.53;4986052;28;20037;-61
2022/09/16 10:17:53;;;;;;;3.33;3.00;;;;;;;18.60;76.74;95394.75;4988598;28;20026;-60
2022/09/16 10:20:22;;;;;;;4.30;2.85;;;;;;;18.44;75.30;95400.44;4990468;28;20501;-60
2022/09/16 10:23:22;;;;;;;5.50;3.10;;;;;;;18.16;75.31;95402.16;4989986;28;20023;-61
2022/09/16 10:25:47;;;;;;;4.18;3.75;;;;;;;18.27;75.44;95402.63;4971944;28;20035;-61
2022/09/16 10:28:23;;;;;;;3.83;3.53;;;;;;;18.51;74.73;95403.13;4990592;28;20028;-61
2022/09/16 10:30:59;;;;;;;4.80;3.25;;;;;;;18.68;73.58;95400.94;4985299;28;20022;-61
2022/09/16 10:33:29;;;;;;;3.20;2.97;;;;;;;18.82;75.17;95404.50;4987464;28;20026;-61
2022/09/16 10:36:19;;;;;;;3.10;2.90;;;;;;;18.90;73.17;95402.47;4982370;28;20038;-61
2022/09/16 10:38:56;;;;;;;3.20;2.97;;;;;;;18.86;73.01;95398.53;4984245;28;20031;-61
2022/09/16 10:41:46;;;;;;;3.20;2.92;;;;;;;18.96;72.37;95402.69;4987885;28;20019;-61
2022/09/16 10:44:16;;;;;;;3.20;3.00;;;;;;;19.09;70.49;95399.25;4985661;28;20043;-61
2022/09/16 10:46:55;;;;;;;4.20;2.90;;;;;;;18.81;69.18;95395.66;4989137;28;20022;-61
2022/09/16 10:49:28;;;;;;;4.35;3.05;;;;;;;18.79;70.62;95392.38;4984999;28;20409;-61
2022/09/16 10:51:53;;;;;;;3.30;3.00;;;;;;;18.79;71.07;95399.53;4971233;28;20550;-61
2022/09/16 10:54:26;;;;;;;3.10;2.90;;;;;;;18.89;71.01;95395.47;4989102;28;20189;-61
2022/09/16 10:56:52;;;;;;;2.83;2.60;;;;;;;18.90;70.45;95396.28;4986297;28;20060;-61
2022/09/16 10:59:18;;;;;;;2.70;2.50;;;;;;;18.79;69.13;95392.38;4984772;28;20794;-60
2022/09/16 11:01:55;;;;;;;3.50;2.72;;;;;;;18.66;66.09;95389.66;4985329;28;20022;-60
2022/09/16 11:04:48;;;;;;;3.10;2.80;;;;;;;18.64;67.92;95387.19;4984927;28;20125;-62
2022/09/16 11:07:49;;;;;;;3.13;2.83;;;;;;;18.51;68.94;95392.47;4987723;28;20125;-62
2022/09/16 11:10:26;;;;;;;5.45;2.97;;;;;;;18.36;69.92;95389.97;4962370;28;20042;-61
2022/09/16 11:13:19;;;;;;;2.90;2.70;;;;;;;18.36;68.85;95387.28;4987807;28;20033;-62
2022/09/16 11:16:03;;;;;;;3.78;2.95;;;;;;;18.37;69.93;95391.59;4988055;28;20108;-61
2022/09/16 11:18:40;;;;;;;3.22;2.67;;;;;;;18.44;71.28;95390.63;4982281;28;20453;-61
2022/09/16 11:21:17;;;;;;;3.08;2.88;;;;;;;18.48;72.54;95391.03;4986989;28;20033;-61
2022/09/16 11:24:01;;;;;;;3.13;2.70;;;;;;;18.58;70.84;95388.00;4986922;28;20050;-62
2022/09/16 11:26:45;;;;;;;3.13;2.80;;;;;;;18.87;70.47;95389.50;4983115;28;20031;-61
2022/09/16 11:29:13;;;;;;;3.55;2.80;;;;;;;19.50;68.94;95395.59;4985940;28;20031;-61
2022/09/16 11:31:41;;;;;;;3.03;2.70;;;;;;;19.73;66.90;95394.34;4987524;28;20106;-61
2022/09/16 11:34:23;;;;;;;4.78;2.97;;;;;;;19.58;65.13;95391.91;4985302;28;20529;-61
2022/09/16 11:37:04;;;;;;;3.17;2.63;;;;;;;19.27;66.21;95387.97;4985477;28;20367;-61
2022/09/16 11:39:35;;;;;;;4.20;3.03;;;;;;;19.05;67.49;95390.81;4984929;28;20109;-61
2022/09/16 11:42:15;;;;;;;3.95;2.60;;;;;;;18.86;68.35;95389.72;4984817;28;20034;-61
2022/09/16 11:44:43;;;;;;;3.15;2.58;;;;;;;18.70;70.42;95385.59;4984538;28;20077;-61
2022/09/16 11:47:21;;;;;;;2.83;2.63;;;;;;;18.58;67.53;95388.81;4985049;28;20026;-61
2022/09/16 11:50:08;;;;;;;3.72;3.08;;;;;;;18.36;67.29;95388.13;4987928;28;20030;-61
2022/09/16 11:53:00;;;;;;;2.80;2.60;;;;;;;18.19;66.75;95390.28;4987663;28;20112;-61